Time;durP1;ratioP1;P1;durP2;ratioP2;P2;SDS_P1;SDS_P2;PMS_P1;PMS_P2;Temp;Humidity;BMP_temperature;BMP_pressure;BME280_temperature;BME280_humidity;BME280_pressure;Samples;Min_cycle;Max_cycle;Signal;HPM_P1;HPM_P2
2021/01/23 00:02:00;;;;;;;5.47;2.20;;;6.30;88.50;;;;;;4940564;28;20023;-83
2021/01/23 00:04:25;;;;;;;6.03;2.35;;;6.30;89.00;;;;;;4940376;28;20028;-83
2021/01/23 00:06:51;;;;;;;3.08;1.88;;;6.30;88.40;;;;;;4940406;28;20034;-83
2021/01/23 00:09:17;;;;;;;6.65;2.40;;;6.30;88.70;;;;;;4940251;28;20031;-84
2021/01/23 00:11:42;;;;;;;5.60;2.22;;;6.40;88.70;;;;;;4940592;28;20040;-83
2021/01/23 00:14:08;;;;;;;3.85;2.03;;;6.40;88.70;;;;;;4940794;28;20031;-83
2021/01/23 00:16:33;;;;;;;4.80;2.25;;;6.50;88.90;;;;;;4940196;29;20031;-84
2021/01/23 00:18:59;;;;;;;5.95;2.50;;;6.40;88.70;;;;;;4956022;28;20041;-84
2021/01/23 00:21:25;;;;;;;6.25;2.72;;;6.40;88.80;;;;;;4939879;29;20035;-82
2021/01/23 00:23:50;;;;;;;5.40;2.28;;;6.40;88.80;;;;;;4936767;29;20123;-82
2021/01/23 00:26:16;;;;;;;4.57;2.15;;;6.40;88.70;;;;;;4952786;28;20032;-82
2021/01/23 00:28:44;;;;;;;5.50;2.13;;;6.40;88.40;;;;;;4936937;29;20075;-82
2021/01/23 00:31:10;;;;;;;6.68;2.65;;;6.40;88.50;;;;;;4952550;28;20046;-82
2021/01/23 00:33:35;;;;;;;7.03;2.42;;;6.50;88.30;;;;;;4952930;28;20107;-82
2021/01/23 00:36:01;;;;;;;7.85;3.10;;;6.30;88.50;;;;;;4936729;29;20067;-82
2021/01/23 00:38:27;;;;;;;6.05;2.47;;;6.40;88.90;;;;;;4957287;28;20393;-82
2021/01/23 00:40:52;;;;;;;4.05;1.92;;;6.30;88.30;;;;;;4952633;28;20024;-82
2021/01/23 00:43:18;;;;;;;3.00;1.58;;;6.30;88.10;;;;;;4936210;29;20032;-82
2021/01/23 00:45:44;;;;;;;5.95;2.50;;;6.20;88.20;;;;;;4952857;28;20027;-82
2021/01/23 00:48:13;;;;;;;5.32;2.22;;;6.20;88.00;;;;;;4937694;29;20102;-83
2021/01/23 00:50:39;;;;;;;7.25;2.95;;;6.10;88.10;;;;;;4935175;29;20400;-83
2021/01/23 00:53:05;;;;;;;7.00;2.70;;;6.10;87.90;;;;;;4936188;29;20031;-83
2021/01/23 00:55:31;;;;;;;5.75;2.63;;;6.00;88.00;;;;;;4936628;29;20061;-83
2021/01/23 00:57:57;;;;;;;6.13;2.65;;;6.00;88.30;;;;;;4952301;28;20086;-83
2021/01/23 01:00:23;;;;;;;4.85;2.20;;;6.00;88.30;;;;;;4951948;28;20030;-83
2021/01/23 01:02:49;;;;;;;6.57;3.00;;;6.00;88.40;;;;;;4936096;28;20480;-83
2021/01/23 01:05:15;;;;;;;7.70;3.03;;;6.00;88.00;;;;;;4936135;29;20075;-83
2021/01/23 01:07:42;;;;;;;7.03;2.85;;;5.90;88.20;;;;;;4936088;29;20424;-83
2021/01/23 01:10:08;;;;;;;6.40;2.95;;;6.00;88.30;;;;;;4952284;28;20388;-83
2021/01/23 01:12:34;;;;;;;8.38;3.20;;;5.80;87.80;;;;;;4936173;29;20027;-83
2021/01/23 01:15:00;;;;;;;8.82;3.40;;;5.90;88.20;;;;;;4935637;29;20476;-83
2021/01/23 01:17:26;;;;;;;5.70;2.80;;;5.70;88.10;;;;;;4938874;29;20035;-83
2021/01/23 01:19:51;;;;;;;7.00;3.08;;;5.90;88.50;;;;;;4936101;29;20028;-83
2021/01/23 01:22:17;;;;;;;5.55;2.50;;;5.80;88.40;;;;;;4936042;29;20058;-83
2021/01/23 01:24:42;;;;;;;6.22;2.83;;;5.70;88.40;;;;;;4952434;28;20444;-84
2021/01/23 01:27:08;;;;;;;2.28;1.63;;;5.80;88.20;;;;;;4938728;28;20035;-84
2021/01/23 01:29:34;;;;;;;7.25;2.60;;;5.60;88.00;;;;;;4956113;28;20356;-84
2021/01/23 01:31:59;;;;;;;5.15;2.38;;;5.60;88.10;;;;;;4938942;28;20086;-84
2021/01/23 01:34:25;;;;;;;7.32;2.60;;;5.70;88.40;;;;;;4938845;29;20027;-84
2021/01/23 01:36:51;;;;;;;6.43;2.63;;;5.50;88.00;;;;;;4939231;28;20038;-85
2021/01/23 01:39:16;;;;;;;5.45;2.30;;;5.50;88.20;;;;;;4938911;29;20093;-85
2021/01/23 01:41:42;;;;;;;5.82;2.60;;;5.60;88.50;;;;;;4954750;28;20026;-86
2021/01/23 01:44:09;;;;;;;4.65;2.30;;;5.50;88.50;;;;;;4939139;28;20023;-85
2021/01/23 01:46:36;;;;;;;5.85;2.60;;;5.60;88.20;;;;;;4938968;28;20015;-85
2021/01/23 01:49:03;;;;;;;4.65;2.28;;;5.40;88.10;;;;;;4938922;28;20034;-85
2021/01/23 01:51:29;;;;;;;4.10;2.03;;;5.40;88.10;;;;;;4938606;29;20121;-85
2021/01/23 01:53:55;;;;;;;5.35;2.40;;;5.30;88.20;;;;;;4938892;28;20437;-84
2021/01/23 01:56:21;;;;;;;6.57;2.78;;;5.40;88.00;;;;;;4938425;28;20046;-84
2021/01/23 01:58:47;;;;;;;7.05;2.47;;;5.30;88.20;;;;;;4938995;28;20420;-84
2021/01/23 02:01:13;;;;;;;4.15;1.77;;;5.00;88.40;;;;;;4938864;28;20028;-84
2021/01/23 02:03:57;;;;;;;4.75;2.30;;;5.30;88.30;;;;;;4938431;28;20024;-84
2021/01/23 02:06:30;;;;;;;4.73;2.30;;;5.20;88.00;;;;;;4938446;28;20464;-84
2021/01/23 02:09:02;;;;;;;3.08;1.70;;;5.30;88.30;;;;;;4938540;28;20031;-84
2021/01/23 02:11:34;;;;;;;1.48;1.30;;;5.10;88.40;;;;;;4938692;29;20171;-84
2021/01/23 02:14:18;;;;;;;5.32;2.33;;;5.00;87.80;;;;;;4938887;28;20023;-84
2021/01/23 02:16:49;;;;;;;5.28;2.22;;;5.00;88.30;;;;;;4938822;28;20019;-84
2021/01/23 02:19:27;;;;;;;1.13;1.02;;;5.10;88.50;;;;;;4938342;28;20024;-84
2021/01/23 02:21:56;;;;;;;5.82;2.67;;;5.00;88.10;;;;;;4954837;28;20023;-84
2021/01/23 02:24:29;;;;;;;4.60;2.08;;;4.90;88.10;;;;;;4938368;28;20504;-84
2021/01/23 02:26:58;;;;;;;1.85;1.20;;;4.80;88.30;;;;;;4937998;28;20050;-84
2021/01/23 02:29:50;;;;;;;3.10;1.70;;;4.80;88.00;;;;;;4938426;28;20023;-84
2021/01/23 02:32:18;;;;;;;2.22;1.50;;;4.70;87.70;;;;;;4938173;29;20035;-84
2021/01/23 02:34:45;;;;;;;2.42;1.50;;;4.80;88.10;;;;;;4938887;28;20030;-84
2021/01/23 02:37:12;;;;;;;1.58;1.20;;;4.70;87.90;;;;;;4942522;29;20024;-82
2021/01/23 02:39:40;;;;;;;1.67;1.15;;;5.00;87.80;;;;;;4956184;28;20023;-82
2021/01/23 02:42:06;;;;;;;3.97;1.95;;;4.40;88.40;;;;;;4938280;28;20035;-82
2021/01/23 02:44:32;;;;;;;2.40;1.50;;;4.30;87.50;;;;;;4938356;28;20034;-82
2021/01/23 02:46:57;;;;;;;3.17;1.80;;;4.20;87.00;;;;;;4938199;28;20078;-82
2021/01/23 02:49:24;;;;;;;3.28;1.52;;;4.10;87.20;;;;;;4938117;29;20031;-82
2021/01/23 02:52:09;;;;;;;2.38;1.35;;;3.80;86.80;;;;;;4938177;28;20035;-82
2021/01/23 02:55:07;;;;;;;2.30;1.47;;;3.60;86.50;;;;;;4955728;28;20381;-82
2021/01/23 02:57:33;;;;;;;2.92;1.48;;;3.40;86.80;;;;;;4938320;28;20023;-82
2021/01/23 03:00:05;;;;;;;2.47;1.45;;;3.30;87.00;;;;;;4938401;28;20480;-85
2021/01/23 03:02:35;;;;;;;2.22;1.55;;;3.20;87.20;;;;;;4938109;28;20114;-85
2021/01/23 03:05:03;;;;;;;1.45;0.90;;;3.10;87.20;;;;;;4938208;28;20038;-83
2021/01/23 03:07:29;;;;;;;1.70;1.30;;;3.00;87.20;;;;;;4937756;29;20026;-83
2021/01/23 03:09:57;;;;;;;1.10;0.93;;;2.90;87.00;;;;;;4955504;28;20032;-83
2021/01/23 03:12:23;;;;;;;0.77;0.77;;;2.90;87.20;;;;;;4938155;28;20031;-83
2021/01/23 03:14:48;;;;;;;1.88;1.05;;;2.90;87.50;;;;;;4939771;28;20023;-83
2021/01/23 03:17:17;;;;;;;1.23;0.82;;;2.60;87.30;;;;;;4941514;28;20467;-84
2021/01/23 03:19:43;;;;;;;0.95;0.65;;;2.60;88.10;;;;;;4941530;29;20058;-84
2021/01/23 03:22:08;;;;;;;1.98;1.30;;;2.50;88.00;;;;;;4941267;28;20050;-83
2021/01/23 03:24:34;;;;;;;1.02;0.90;;;2.60;88.10;;;;;;4958291;28;20122;-84
2021/01/23 03:26:59;;;;;;;1.27;1.17;;;2.40;87.60;;;;;;4955619;28;20027;-85
2021/01/23 03:29:25;;;;;;;0.80;0.80;;;2.50;87.90;;;;;;4941256;28;20030;-85
2021/01/23 03:31:51;;;;;;;0.80;0.80;;;2.30;87.50;;;;;;4957332;28;20042;-85
2021/01/23 03:34:16;;;;;;;0.60;0.50;;;2.30;88.10;;;;;;4941222;28;20019;-85
2021/01/23 03:36:42;;;;;;;1.10;0.82;;;2.30;88.50;;;;;;4945256;28;20061;-85
2021/01/23 03:39:08;;;;;;;0.70;0.70;;;2.40;88.10;;;;;;4940945;28;20035;-86
2021/01/23 03:41:35;;;;;;;0.50;0.50;;;2.30;88.00;;;;;;4944927;29;20399;-86
2021/01/23 03:44:01;;;;;;;0.65;0.65;;;2.10;88.30;;;;;;4957286;28;20015;-86
2021/01/23 03:46:26;;;;;;;0.40;0.40;;;2.20;88.70;;;;;;4941227;28;20436;-86
2021/01/23 03:48:52;;;;;;;0.55;0.50;;;2.30;88.90;;;;;;4940704;28;20069;-86
2021/01/23 03:51:18;;;;;;;0.30;0.30;;;2.20;88.40;;;;;;4956625;28;20089;-86
2021/01/23 03:53:45;;;;;;;0.50;0.50;;;2.20;88.50;;;;;;4960220;28;21206;-85
2021/01/23 03:56:10;;;;;;;0.57;0.57;;;2.20;88.70;;;;;;4940547;28;20061;-85
2021/01/23 03:58:36;;;;;;;0.50;0.50;;;2.20;88.80;;;;;;4940456;29;20415;-85
2021/01/23 04:01:03;;;;;;;0.40;0.40;;;2.20;88.90;;;;;;4941125;28;20042;-85
2021/01/23 04:03:29;;;;;;;0.50;0.50;;;2.30;89.30;;;;;;4936951;28;20019;-85
2021/01/23 04:05:55;;;;;;;0.45;0.45;;;2.20;88.90;;;;;;4956554;28;20058;-85
2021/01/23 04:08:21;;;;;;;0.50;0.50;;;2.20;88.80;;;;;;4940604;28;20027;-85
2021/01/23 04:10:47;;;;;;;0.57;0.57;;;2.20;88.80;;;;;;4940112;28;20042;-86
2021/01/23 04:13:12;;;;;;;0.50;0.50;;;2.10;88.80;;;;;;4940441;28;20027;-86
2021/01/23 04:15:39;;;;;;;0.30;0.30;;;2.20;88.70;;;;;;4940331;28;20023;-86
2021/01/23 04:18:07;;;;;;;0.50;0.50;;;2.10;88.70;;;;;;4942664;28;20086;-86
2021/01/23 04:20:33;;;;;;;0.47;0.47;;;2.00;89.00;;;;;;4949906;28;20047;-86
2021/01/23 04:22:59;;;;;;;0.32;0.32;;;2.10;89.20;;;;;;4940089;28;20070;-86
2021/01/23 04:25:25;;;;;;;0.60;0.60;;;2.10;89.20;;;;;;4940464;28;20038;-86
2021/01/23 04:27:51;;;;;;;0.55;0.50;;;2.10;89.20;;;;;;4944492;28;20042;-86
2021/01/23 04:30:17;;;;;;;0.55;0.50;;;2.10;89.00;;;;;;4939922;28;20089;-86
2021/01/23 04:32:42;;;;;;;0.68;0.50;;;2.10;89.20;;;;;;4940184;29;20035;-86
2021/01/23 04:35:10;;;;;;;0.50;0.50;;;2.10;89.30;;;;;;4940051;28;20086;-85
2021/01/23 04:37:38;;;;;;;0.40;0.40;;;2.00;89.10;;;;;;4939626;28;20063;-86
2021/01/23 04:40:05;;;;;;;0.40;0.40;;;2.00;89.40;;;;;;4939843;28;20023;-85
2021/01/23 04:42:31;;;;;;;0.40;0.40;;;2.10;89.60;;;;;;4940120;28;20486;-85
2021/01/23 04:44:56;;;;;;;0.52;0.52;;;2.10;89.50;;;;;;4939858;28;20036;-85
2021/01/23 04:47:22;;;;;;;0.55;0.55;;;2.10;89.60;;;;;;4955828;28;20043;-87
2021/01/23 04:49:48;;;;;;;0.57;0.57;;;2.10;89.50;;;;;;4940062;29;20130;-86
2021/01/23 04:52:14;;;;;;;1.00;0.50;;;2.10;89.70;;;;;;4942845;28;20042;-89
2021/01/23 04:54:43;;;;;;;0.57;0.57;;;2.10;89.40;;;;;;4940381;28;20051;-89
2021/01/23 04:57:10;;;;;;;0.40;0.40;;;2.10;89.40;;;;;;4936665;28;20032;-89
2021/01/23 04:59:35;;;;;;;0.40;0.40;;;2.10;89.60;;;;;;4940179;28;20019;-90
2021/01/23 05:02:27;;;;;;;26.00;11.20;;;2.10;89.80;;;;;;4942900;28;20039;-90
2021/01/23 05:07:35;;;;;;;1.27;1.02;;;2.20;89.90;;;;;;4956632;28;20034;-90
2021/01/23 05:10:23;;;;;;;1.15;0.85;;;2.20;89.90;;;;;;4945106;28;20368;-90
2021/01/23 05:12:55;;;;;;;0.50;0.50;;;2.10;89.70;;;;;;4955748;28;20539;-89
2021/01/23 05:15:22;;;;;;;1.05;0.95;;;2.10;89.80;;;;;;4940332;28;20126;-87
2021/01/23 05:17:56;;;;;;;0.80;0.80;;;2.20;90.00;;;;;;4943992;28;20039;-87
2021/01/23 05:20:28;;;;;;;1.25;0.85;;;2.20;89.90;;;;;;4942373;28;20065;-87
2021/01/23 05:22:57;;;;;;;0.55;0.40;;;2.20;90.00;;;;;;4945550;28;20391;-85
2021/01/23 05:25:30;;;;;;;0.47;0.47;;;2.10;90.00;;;;;;4939715;28;20207;-89
2021/01/23 05:27:58;;;;;;;0.45;0.45;;;2.20;90.00;;;;;;4939978;28;20110;-89
2021/01/23 05:30:25;;;;;;;0.50;0.50;;;2.10;90.00;;;;;;4942591;28;20070;-88
2021/01/23 05:33:04;;;;;;;0.70;0.70;;;2.20;90.00;;;;;;4944458;28;20069;-88
2021/01/23 05:35:30;;;;;;;0.80;0.63;;;2.10;90.10;;;;;;4937743;28;20421;-87
2021/01/23 05:37:56;;;;;;;0.50;0.50;;;2.20;90.00;;;;;;4946693;28;20035;-88
2021/01/23 05:40:31;;;;;;;1.20;1.10;;;2.20;90.10;;;;;;4947857;28;20085;-87
2021/01/23 05:42:57;;;;;;;0.55;0.55;;;2.20;90.20;;;;;;4940347;29;20023;-86
2021/01/23 05:45:23;;;;;;;0.98;0.95;;;2.20;90.20;;;;;;4962745;28;20050;-87
2021/01/23 05:47:48;;;;;;;1.23;1.10;;;2.20;90.20;;;;;;4943664;28;20062;-86
2021/01/23 05:50:14;;;;;;;0.82;0.82;;;2.30;90.20;;;;;;4956903;28;20491;-87
2021/01/23 05:52:43;;;;;;;0.88;0.75;;;2.30;90.20;;;;;;4959030;28;20118;-87
2021/01/23 05:55:10;;;;;;;1.17;1.00;;;2.20;90.20;;;;;;4942949;28;20023;-87
2021/01/23 05:57:36;;;;;;;1.13;0.70;;;2.20;90.30;;;;;;4938552;28;20027;-87
2021/01/23 06:00:04;;;;;;;1.27;1.17;;;2.20;90.30;;;;;;4939420;29;20019;-86
2021/01/23 06:02:30;;;;;;;1.20;0.73;;;2.20;90.30;;;;;;4941947;28;20094;-87
2021/01/23 06:04:59;;;;;;;0.75;0.70;;;2.20;90.30;;;;;;4958505;28;20027;-86
2021/01/23 06:07:40;;;;;;;2.67;1.50;;;2.30;90.30;;;;;;4955085;28;20027;-86
2021/01/23 06:10:25;;;;;;;1.95;1.10;;;2.30;90.30;;;;;;4951482;28;20024;-87
2021/01/23 06:12:55;;;;;;;2.28;1.25;;;2.30;90.40;;;;;;4938821;28;20036;-86
2021/01/23 06:15:42;;;;;;;0.50;0.50;;;2.30;90.40;;;;;;4942600;28;20023;-88
2021/01/23 06:18:26;;;;;;;1.13;0.70;;;2.30;90.50;;;;;;4938096;28;20046;-87
2021/01/23 06:20:56;;;;;;;0.50;0.50;;;2.40;90.60;;;;;;4938956;29;20376;-87
2021/01/23 06:23:22;;;;;;;0.70;0.70;;;2.40;90.60;;;;;;4938165;28;20511;-87
2021/01/23 06:25:53;;;;;;;0.90;0.90;;;2.40;90.40;;;;;;4941706;28;20039;-87
2021/01/23 06:28:24;;;;;;;0.60;0.60;;;2.40;90.40;;;;;;4941095;28;20136;-87
2021/01/23 06:30:50;;;;;;;2.47;1.20;;;2.30;90.30;;;;;;4941712;28;20027;-87
2021/01/23 06:33:35;;;;;;;0.50;0.50;;;2.30;90.40;;;;;;4934877;28;20034;-87
2021/01/23 06:36:06;;;;;;;0.70;0.70;;;2.30;90.50;;;;;;4938670;29;20024;-87
2021/01/23 06:38:34;;;;;;;1.58;1.00;;;2.40;90.60;;;;;;4955055;28;20026;-88
2021/01/23 06:41:24;;;;;;;2.75;1.50;;;2.30;90.50;;;;;;4944585;28;20074;-89
2021/01/23 06:44:09;;;;;;;1.48;1.17;;;2.30;90.60;;;;;;4952061;28;20027;-88
2021/01/23 06:46:41;;;;;;;3.20;1.67;;;2.30;90.60;;;;;;4951593;28;20019;-88
2021/01/23 06:49:11;;;;;;;3.53;1.73;;;2.30;90.70;;;;;;4943699;28;20035;-86
2021/01/23 06:51:38;;;;;;;4.72;2.00;;;2.30;90.60;;;;;;4948901;28;20035;-90
2021/01/23 06:54:20;;;;;;;2.13;1.30;;;2.30;90.70;;;;;;4942197;29;20043;-86
2021/01/23 06:57:22;;;;;;;1.55;1.02;;;2.30;90.60;;;;;;4942535;28;20027;-87
2021/01/23 06:59:48;;;;;;;1.30;1.05;;;2.30;90.70;;;;;;4941305;28;20102;-85
2021/01/23 07:02:21;;;;;;;5.97;1.85;;;2.20;90.60;;;;;;4941782;28;20019;-86
2021/01/23 07:04:50;;;;;;;1.75;1.17;;;2.30;90.80;;;;;;4941515;28;20027;-82
2021/01/23 07:07:49;;;;;;;1.67;1.17;;;2.20;90.70;;;;;;4956887;28;20031;-85
2021/01/23 07:11:20;;;;;;;;;;;;;;;;;;;;;
2021/01/23 07:14:03;;;;;;;3.63;1.52;;;2.20;90.70;;;;;;4960979;28;20050;-83
2021/01/23 07:16:31;;;;;;;2.80;1.50;;;2.20;90.80;;;;;;4960607;28;20020;-78
2021/01/23 07:19:00;;;;;;;0.90;0.90;;;2.20;90.80;;;;;;4941325;28;20039;-85
2021/01/23 07:21:26;;;;;;;2.15;1.42;;;2.20;90.70;;;;;;4941161;28;20023;-84
2021/01/23 07:23:54;;;;;;;3.85;1.80;;;2.20;90.80;;;;;;4941408;28;20055;-87
2021/01/23 07:26:20;;;;;;;4.03;1.98;;;2.10;90.80;;;;;;4941168;29;20515;-84
2021/01/23 07:28:54;;;;;;;5.15;2.25;;;2.10;90.70;;;;;;4941140;28;20509;-82
2021/01/23 07:31:40;;;;;;;1.20;1.00;;;2.10;90.90;;;;;;4940751;28;20031;-83
2021/01/23 07:34:33;;;;;;;6.88;2.70;;;2.20;91.00;;;;;;4940929;28;20063;-88
2021/01/23 07:41:23;;;;;;;1.95;1.55;;;2.10;90.90;;;;;;4882467;29;20144;-84
2021/01/23 07:44:53;;;;;;;6.25;2.58;;;2.10;90.90;;;;;;4962029;28;20510;-86
2021/01/23 07:47:26;;;;;;;4.15;2.08;;;2.10;91.10;;;;;;4936788;28;20090;-83
2021/01/23 07:50:08;;;;;;;5.65;2.33;;;2.10;91.20;;;;;;4957498;28;20023;-86
2021/01/23 07:56:32;;;;;;;3.58;1.55;;;2.30;91.30;;;;;;4952499;28;20118;-83
2021/01/23 07:58:58;;;;;;;4.28;1.83;;;2.40;91.20;;;;;;4940227;28;20039;-84
2021/01/23 08:04:57;;;;;;;6.72;2.83;;;2.30;91.30;;;;;;4935636;28;20032;-83
2021/01/23 08:07:30;;;;;;;6.32;2.40;;;2.30;91.20;;;;;;4957644;28;20244;-83
2021/01/23 08:10:25;;;;;;;8.20;3.05;;;2.30;91.20;;;;;;4941143;29;20054;-83
2021/01/23 08:13:14;;;;;;;;;;;;;;;;;;;;;
2021/01/23 08:15:49;;;;;;;4.68;2.22;;;2.50;91.40;;;;;;4960585;28;20031;-83
2021/01/23 08:18:40;;;;;;;3.08;1.70;;;2.40;91.30;;;;;;4937343;28;20047;-84
2021/01/23 08:21:44;;;;;;;10.75;3.33;;;2.50;91.50;;;;;;4922774;28;20031;-83
2021/01/23 08:24:53;;;;;;;1.90;1.40;;;2.50;91.40;;;;;;4931270;29;20043;-84
2021/01/23 08:28:39;;;;;;;6.22;2.90;;;2.50;91.50;;;;;;4899001;29;20051;-84
2021/01/23 08:31:12;;;;;;;;;;;2.50;91.50;;;;;;4890837;29;20060;-85
2021/01/23 08:36:52;;;;;;;2.03;1.17;;;2.60;91.50;;;;;;4866088;29;20021;-85
2021/01/23 08:39:18;;;;;;;7.80;3.33;;;2.60;91.50;;;;;;4926844;29;20366;-88
2021/01/23 08:41:43;;;;;;;1.40;0.95;;;2.70;91.50;;;;;;4934133;29;20448;-87
2021/01/23 08:44:09;;;;;;;8.75;2.78;;;2.70;91.60;;;;;;4920821;29;20030;-86
2021/01/23 08:47:19;;;;;;;5.05;2.42;;;2.70;91.60;;;;;;4918014;29;20400;-85
2021/01/23 08:50:10;;;;;;;;;;;;;;;;;;;;;
2021/01/23 08:55:37;;;;;;;5.78;2.83;;;2.90;91.70;;;;;;4936637;29;20035;-86
2021/01/23 08:58:39;;;;;;;6.68;2.17;;;3.10;92.00;;;;;;4919387;29;20532;-86
2021/01/23 09:01:42;;;;;;;;;;;;;;;;;;;;;
2021/01/23 09:04:08;;;;;;;7.20;3.22;;;3.30;91.90;;;;;;4941355;29;20032;-86
2021/01/23 09:10:41;;;;;;;;;;;;;;;;;;;;;
2021/01/23 09:28:25;;;;;;;;;;;;;;;;;;;;;
2021/01/23 09:30:51;;;;;;;19.95;7.25;;;4.00;92.10;;;;;;4897766;29;20457;-84
2021/01/23 09:33:28;;;;;;;19.70;7.05;;;4.10;92.10;;;;;;4932086;29;20126;-85
2021/01/23 09:35:55;;;;;;;21.77;6.45;;;4.20;92.10;;;;;;4964327;28;20519;-87
2021/01/23 09:38:21;;;;;;;9.88;4.55;;;4.30;92.00;;;;;;4969258;28;20023;-88
2021/01/23 09:40:47;;;;;;;14.70;4.70;;;4.30;91.70;;;;;;4957404;28;20086;-88
2021/01/23 09:43:12;;;;;;;20.75;6.43;;;4.30;91.70;;;;;;4971178;28;20121;-87
2021/01/23 09:45:41;;;;;;;15.35;5.72;;;4.30;91.80;;;;;;4961099;28;20022;-87
2021/01/23 09:48:10;;;;;;;12.80;4.10;;;4.30;91.50;;;;;;4970344;28;20042;-87
2021/01/23 09:50:36;;;;;;;13.88;5.95;;;4.30;91.60;;;;;;4969563;28;20428;-87
2021/01/23 09:53:03;;;;;;;18.30;6.30;;;4.30;91.70;;;;;;4967134;28;20085;-88
2021/01/23 09:55:30;;;;;;;16.45;6.55;;;4.30;91.60;;;;;;4971252;28;20033;-88
2021/01/23 09:57:55;;;;;;;25.35;7.18;;;4.20;91.80;;;;;;4955043;28;20030;-88
2021/01/23 10:00:22;;;;;;;16.25;5.30;;;4.10;91.60;;;;;;4971069;28;20042;-88
2021/01/23 10:02:47;;;;;;;18.17;5.82;;;4.20;91.80;;;;;;4955996;28;20050;-86
2021/01/23 10:05:16;;;;;;;16.75;4.75;;;4.20;91.90;;;;;;4971134;28;20034;-87
2021/01/23 10:07:41;;;;;;;23.27;7.15;;;4.20;91.80;;;;;;4963610;28;20040;-85
2021/01/23 10:10:09;;;;;;;23.45;6.05;;;4.30;91.90;;;;;;4954575;28;20372;-84
2021/01/23 10:12:42;;;;;;;22.02;8.02;;;4.20;91.90;;;;;;4971195;28;20027;-85
2021/01/23 10:15:11;;;;;;;24.48;8.27;;;4.20;92.00;;;;;;4959234;28;20476;-85
2021/01/23 10:17:37;;;;;;;17.38;6.32;;;4.20;92.00;;;;;;4966989;28;20037;-84
2021/01/23 10:20:05;;;;;;;27.27;7.50;;;4.30;92.00;;;;;;4961036;28;20024;-84
2021/01/23 10:22:36;;;;;;;36.92;10.27;;;4.30;92.00;;;;;;4957670;28;20038;-84
2021/01/23 10:25:04;;;;;;;30.17;9.45;;;4.30;92.10;;;;;;4964853;28;20023;-85
2021/01/23 10:27:30;;;;;;;11.80;4.72;;;4.40;92.30;;;;;;4969197;28;20046;-84
2021/01/23 10:29:56;;;;;;;7.53;2.65;;;4.50;92.30;;;;;;4979630;28;20564;-84
2021/01/23 10:32:21;;;;;;;32.05;9.10;;;4.50;92.10;;;;;;4981870;28;20058;-84
2021/01/23 10:34:47;;;;;;;11.60;4.45;;;4.50;92.00;;;;;;4979574;28;20521;-84
2021/01/23 10:37:14;;;;;;;24.55;8.80;;;4.50;92.10;;;;;;4979252;28;20060;-83
2021/01/23 10:39:40;;;;;;;30.35;10.50;;;4.50;92.10;;;;;;4996612;28;20029;-84
2021/01/23 10:42:05;;;;;;;9.73;4.53;;;4.60;92.40;;;;;;4979237;28;20122;-83
2021/01/23 10:44:37;;;;;;;25.05;8.05;;;4.70;92.50;;;;;;4979891;28;20448;-84
2021/01/23 10:47:03;;;;;;;13.02;4.45;;;4.60;92.10;;;;;;4981207;28;20036;-83
2021/01/23 10:49:29;;;;;;;27.67;8.02;;;4.60;92.00;;;;;;4979201;28;20105;-83
2021/01/23 10:51:55;;;;;;;23.30;7.25;;;4.70;92.20;;;;;;4979351;28;20493;-83
2021/01/23 10:54:20;;;;;;;23.02;7.97;;;4.70;92.20;;;;;;4983776;28;20065;-82
2021/01/23 11:00:49;;;;;;;23.77;7.75;;;4.70;92.40;;;;;;4994719;28;20047;-84
2021/01/23 11:07:07;;;;;;;15.20;6.00;;;4.90;92.60;;;;;;4980286;28;20347;-84
2021/01/23 11:09:41;;;;;;;28.40;8.93;;;5.00;92.50;;;;;;4978834;28;20030;-83
2021/01/23 11:12:36;;;;;;;18.10;6.40;;;5.00;92.70;;;;;;4977942;28;20052;-85
2021/01/23 11:15:02;;;;;;;22.15;7.88;;;5.20;92.80;;;;;;4977077;28;20475;-85
2021/01/23 11:17:30;;;;;;;17.67;6.10;;;5.20;92.60;;;;;;4978459;28;20049;-84
2021/01/23 11:19:56;;;;;;;16.23;6.93;;;5.20;92.60;;;;;;4994353;28;20030;-86
2021/01/23 11:22:47;;;;;;;17.23;7.53;;;5.30;92.50;;;;;;4976564;28;20421;-85
2021/01/23 11:25:30;;;;;;;15.05;6.45;;;5.20;92.40;;;;;;4978130;28;20034;-85
2021/01/23 11:27:56;;;;;;;20.02;8.38;;;5.20;92.30;;;;;;4978326;28;20113;-86
2021/01/23 11:30:53;;;;;;;16.45;7.22;;;5.20;92.70;;;;;;4978052;28;20105;-85
2021/01/23 11:33:19;;;;;;;19.50;6.55;;;5.10;92.50;;;;;;4978148;28;20026;-85
2021/01/23 11:35:44;;;;;;;17.20;6.65;;;5.10;92.30;;;;;;4994770;28;20015;-83
2021/01/23 11:38:18;;;;;;;16.52;6.28;;;5.10;92.60;;;;;;4995244;28;20084;-84
2021/01/23 11:40:46;;;;;;;12.27;4.97;;;5.20;92.50;;;;;;4977696;28;20467;-84
2021/01/23 11:43:39;;;;;;;21.08;6.90;;;5.10;92.30;;;;;;4977976;28;20022;-84
2021/01/23 11:46:05;;;;;;;16.95;6.68;;;5.20;92.80;;;;;;4969779;28;20113;-83
2021/01/23 11:51:23;;;;;;;15.63;4.97;;;5.50;93.20;;;;;;4994587;28;20393;-84
2021/01/23 11:53:51;;;;;;;9.07;4.43;;;5.70;93.30;;;;;;4980911;28;20477;-83
2021/01/23 11:56:18;;;;;;;12.75;6.00;;;5.90;93.00;;;;;;4962809;28;20117;-83
2021/01/23 11:58:44;;;;;;;15.88;6.88;;;6.10;93.00;;;;;;4978025;28;20475;-83
2021/01/23 12:01:09;;;;;;;11.55;5.53;;;6.20;93.00;;;;;;4977906;28;20062;-83
2021/01/23 12:03:35;;;;;;;15.07;6.43;;;6.30;92.70;;;;;;4995079;28;20093;-83
2021/01/23 12:06:03;;;;;;;10.93;5.22;;;6.30;92.40;;;;;;4977467;28;20478;-83
2021/01/23 12:08:32;;;;;;;12.75;5.43;;;6.30;92.50;;;;;;4977614;28;20023;-84
2021/01/23 12:10:59;;;;;;;12.25;5.65;;;6.50;92.80;;;;;;4974003;28;20049;-84
2021/01/23 12:13:25;;;;;;;13.77;6.10;;;6.50;92.90;;;;;;4977733;28;20014;-83
2021/01/23 12:15:53;;;;;;;15.80;5.95;;;6.50;92.80;;;;;;4977315;28;20494;-85
2021/01/23 12:18:19;;;;;;;11.95;5.25;;;6.60;92.50;;;;;;4977470;28;20478;-79
2021/01/23 12:20:46;;;;;;;11.32;5.53;;;6.60;92.40;;;;;;4977031;28;20023;-82
2021/01/23 12:23:11;;;;;;;10.43;4.68;;;6.50;92.20;;;;;;4977587;28;20026;-87
2021/01/23 12:25:39;;;;;;;11.82;4.68;;;6.60;92.30;;;;;;4977307;28;20030;-82
2021/01/23 12:28:05;;;;;;;12.80;5.32;;;6.70;92.80;;;;;;4977333;28;20038;-84
2021/01/23 12:30:31;;;;;;;12.52;5.50;;;6.80;92.90;;;;;;4993524;28;20034;-84
2021/01/23 12:32:56;;;;;;;13.32;5.90;;;7.00;93.10;;;;;;4977057;28;20026;-82
2021/01/23 12:35:22;;;;;;;11.88;5.22;;;7.10;93.10;;;;;;4977275;28;20498;-84
2021/01/23 12:37:48;;;;;;;12.82;5.65;;;7.30;93.00;;;;;;4977538;28;20034;-84
2021/01/23 12:40:14;;;;;;;11.90;4.95;;;7.30;92.70;;;;;;4977093;28;20069;-85
2021/01/23 12:42:40;;;;;;;13.20;5.45;;;7.30;92.70;;;;;;4974878;28;20045;-84
2021/01/23 12:45:07;;;;;;;13.85;5.90;;;7.30;92.60;;;;;;4960772;28;20030;-84
2021/01/23 12:47:33;;;;;;;14.55;5.70;;;7.30;92.60;;;;;;4975116;28;20034;-84
2021/01/23 12:50:01;;;;;;;11.20;5.28;;;7.30;92.70;;;;;;4974422;28;20027;-83
2021/01/23 12:52:27;;;;;;;11.60;4.88;;;7.30;92.60;;;;;;4976004;28;20117;-84
2021/01/23 12:54:52;;;;;;;11.13;5.18;;;7.20;92.40;;;;;;4976697;28;20176;-84
2021/01/23 12:57:18;;;;;;;14.00;6.45;;;7.00;92.50;;;;;;4976856;28;20535;-84
2021/01/23 12:59:44;;;;;;;11.65;5.60;;;7.00;92.60;;;;;;4976378;28;20414;-83
2021/01/23 13:02:09;;;;;;;11.40;5.00;;;6.90;92.90;;;;;;4976223;28;20216;-84
2021/01/23 13:04:35;;;;;;;11.02;5.22;;;7.10;93.00;;;;;;4976959;28;20057;-85
2021/01/23 13:07:04;;;;;;;13.95;6.15;;;7.10;93.10;;;;;;4975999;28;20104;-88
2021/01/23 13:09:30;;;;;;;11.80;5.32;;;7.10;92.90;;;;;;4975652;28;20121;-90
2021/01/23 13:11:55;;;;;;;10.73;4.97;;;7.00;92.60;;;;;;4979498;28;20572;-89
2021/01/23 13:14:30;;;;;;;12.38;5.70;;;7.00;92.60;;;;;;4978607;28;20054;-87
2021/01/23 13:16:56;;;;;;;;;;;7.00;92.70;;;;;;4977652;28;20061;-90
2021/01/23 13:19:25;;;;;;;10.82;4.80;;;6.90;92.80;;;;;;4977082;28;20335;-86
2021/01/23 13:21:51;;;;;;;11.23;5.18;;;6.90;93.00;;;;;;4978668;28;20414;-90
2021/01/23 13:24:16;;;;;;;11.32;5.10;;;7.00;93.00;;;;;;4976988;28;20026;-88
2021/01/23 13:26:48;;;;;;;12.57;5.57;;;7.00;93.00;;;;;;4975596;28;20097;-86
2021/01/23 13:29:27;;;;;;;11.23;4.85;;;7.00;93.00;;;;;;4987371;28;20046;-86
2021/01/23 13:31:52;;;;;;;12.60;5.20;;;7.00;92.90;;;;;;4975019;28;20034;-86
2021/01/23 13:34:18;;;;;;;11.20;5.05;;;6.90;92.80;;;;;;4976054;28;20019;-85
2021/01/23 13:36:45;;;;;;;10.23;4.53;;;6.90;92.90;;;;;;4977127;28;20110;-86
2021/01/23 13:39:10;;;;;;;11.02;4.90;;;6.90;92.90;;;;;;4976739;28;20425;-86
2021/01/23 13:41:49;;;;;;;16.08;8.68;;;6.90;93.00;;;;;;4972753;28;20117;-87
2021/01/23 13:44:15;;;;;;;12.55;5.75;;;6.90;93.20;;;;;;4958794;28;20022;-88
2021/01/23 13:46:44;;;;;;;13.07;4.78;;;6.90;93.20;;;;;;4976281;28;20031;-88
2021/01/23 13:49:11;;;;;;;9.75;4.30;;;6.90;93.20;;;;;;4975773;28;20018;-86
2021/01/23 13:51:37;;;;;;;10.43;5.00;;;7.00;93.10;;;;;;4975850;28;20046;-86
2021/01/23 13:54:02;;;;;;;14.00;5.60;;;6.90;92.90;;;;;;4975917;28;20026;-88
2021/01/23 13:56:28;;;;;;;10.55;4.80;;;6.90;92.70;;;;;;4964248;28;20118;-88
2021/01/23 13:58:54;;;;;;;11.43;4.90;;;6.80;92.90;;;;;;4975913;28;20031;-81
2021/01/23 14:01:19;;;;;;;20.23;11.40;;;6.80;93.00;;;;;;4989334;28;20605;-80
2021/01/23 14:03:45;;;;;;;18.13;10.05;;;6.80;93.30;;;;;;4975503;28;20069;-81
2021/01/23 14:06:11;;;;;;;12.27;5.60;;;6.70;93.10;;;;;;4992984;28;20042;-81
2021/01/23 14:08:36;;;;;;;12.45;5.55;;;6.70;93.10;;;;;;4974986;28;20028;-80